sensor_id;sensor_type;location;lat;lon;timestamp;P1;durP1;ratioP1;P2;durP2;ratioP2
41446;SDS011;27185;52.040;4.490;2023-12-07T00:01:56;14.82;;;9.15;;
41446;SDS011;27185;52.040;4.490;2023-12-07T00:04:42;16.25;;;9.07;;
41446;SDS011;27185;52.040;4.490;2023-12-07T00:07:27;16.08;;;9.30;;
41446;SDS011;27185;52.040;4.490;2023-12-07T00:10:13;12.65;;;9.15;;
41446;SDS011;27185;52.040;4.490;2023-12-07T00:12:59;15.38;;;9.18;;
41446;SDS011;27185;52.040;4.490;2023-12-07T00:15:45;15.88;;;9.32;;
41446;SDS011;27185;52.040;4.490;2023-12-07T00:18:31;15.30;;;9.07;;
41446;SDS011;27185;52.040;4.490;2023-12-07T00:21:16;16.13;;;9.23;;
41446;SDS011;27185;52.040;4.490;2023-12-07T00:24:02;13.70;;;8.23;;
41446;SDS011;27185;52.040;4.490;2023-12-07T00:26:48;16.38;;;8.43;;
41446;SDS011;27185;52.040;4.490;2023-12-07T00:29:36;16.73;;;10.00;;
41446;SDS011;27185;52.040;4.490;2023-12-07T00:32:22;18.92;;;10.55;;
41446;SDS011;27185;52.040;4.490;2023-12-07T00:35:07;15.77;;;8.85;;
41446;SDS011;27185;52.040;4.490;2023-12-07T00:37:53;17.70;;;8.57;;
41446;SDS011;27185;52.040;4.490;2023-12-07T00:40:39;15.77;;;8.60;;
41446;SDS011;27185;52.040;4.490;2023-12-07T00:43:25;14.25;;;9.27;;
41446;SDS011;27185;52.040;4.490;2023-12-07T00:46:10;17.08;;;8.73;;
41446;SDS011;27185;52.040;4.490;2023-12-07T00:48:56;13.88;;;8.07;;
41446;SDS011;27185;52.040;4.490;2023-12-07T00:51:42;14.93;;;8.20;;
41446;SDS011;27185;52.040;4.490;2023-12-07T00:54:28;11.77;;;7.65;;
41446;SDS011;27185;52.040;4.490;2023-12-07T00:57:13;14.40;;;9.35;;
41446;SDS011;27185;52.040;4.490;2023-12-07T00:59:59;16.08;;;9.98;;
41446;SDS011;27185;52.040;4.490;2023-12-07T01:02:44;11.32;;;8.40;;
41446;SDS011;27185;52.040;4.490;2023-12-07T01:05:30;15.10;;;8.95;;
41446;SDS011;27185;52.040;4.490;2023-12-07T01:08:15;14.88;;;9.40;;
41446;SDS011;27185;52.040;4.490;2023-12-07T01:11:01;16.23;;;9.35;;
41446;SDS011;27185;52.040;4.490;2023-12-07T01:13:47;14.38;;;8.20;;
41446;SDS011;27185;52.040;4.490;2023-12-07T01:16:32;14.40;;;8.07;;
41446;SDS011;27185;52.040;4.490;2023-12-07T01:19:18;16.00;;;9.07;;
41446;SDS011;27185;52.040;4.490;2023-12-07T01:22:04;16.95;;;8.30;;
41446;SDS011;27185;52.040;4.490;2023-12-07T01:24:49;15.23;;;8.68;;
41446;SDS011;27185;52.040;4.490;2023-12-07T01:27:35;14.18;;;8.23;;
41446;SDS011;27185;52.040;4.490;2023-12-07T01:30:20;14.20;;;8.50;;
41446;SDS011;27185;52.040;4.490;2023-12-07T01:33:06;14.77;;;8.93;;
41446;SDS011;27185;52.040;4.490;2023-12-07T01:35:51;13.43;;;8.85;;
41446;SDS011;27185;52.040;4.490;2023-12-07T01:38:37;12.90;;;8.13;;
41446;SDS011;27185;52.040;4.490;2023-12-07T01:41:23;14.15;;;8.45;;
41446;SDS011;27185;52.040;4.490;2023-12-07T01:44:08;13.30;;;7.75;;
41446;SDS011;27185;52.040;4.490;2023-12-07T01:46:54;15.20;;;8.20;;
41446;SDS011;27185;52.040;4.490;2023-12-07T01:49:40;14.00;;;8.30;;
41446;SDS011;27185;52.040;4.490;2023-12-07T01:52:26;11.00;;;7.45;;
41446;SDS011;27185;52.040;4.490;2023-12-07T01:55:14;14.55;;;8.65;;
41446;SDS011;27185;52.040;4.490;2023-12-07T01:58:00;15.70;;;8.95;;
41446;SDS011;27185;52.040;4.490;2023-12-07T02:00:46;14.98;;;8.77;;
41446;SDS011;27185;52.040;4.490;2023-12-07T02:03:32;16.75;;;10.35;;
41446;SDS011;27185;52.040;4.490;2023-12-07T02:06:17;15.00;;;9.32;;
41446;SDS011;27185;52.040;4.490;2023-12-07T02:09:03;15.55;;;9.70;;
41446;SDS011;27185;52.040;4.490;2023-12-07T02:11:49;15.23;;;9.85;;
41446;SDS011;27185;52.040;4.490;2023-12-07T02:14:34;14.60;;;9.10;;
41446;SDS011;27185;52.040;4.490;2023-12-07T02:20:49;17.50;;;8.75;;
41446;SDS011;27185;52.040;4.490;2023-12-07T02:23:50;17.17;;;9.35;;
41446;SDS011;27185;52.040;4.490;2023-12-07T02:26:38;17.48;;;10.05;;
41446;SDS011;27185;52.040;4.490;2023-12-07T02:29:24;14.23;;;8.90;;
41446;SDS011;27185;52.040;4.490;2023-12-07T02:32:09;12.55;;;8.23;;
41446;SDS011;27185;52.040;4.490;2023-12-07T02:34:55;15.50;;;8.73;;
41446;SDS011;27185;52.040;4.490;2023-12-07T02:37:42;14.63;;;8.93;;
41446;SDS011;27185;52.040;4.490;2023-12-07T02:40:36;12.82;;;9.02;;
41446;SDS011;27185;52.040;4.490;2023-12-07T02:43:23;12.60;;;7.30;;
41446;SDS011;27185;52.040;4.490;2023-12-07T02:46:08;13.05;;;8.10;;
41446;SDS011;27185;52.040;4.490;2023-12-07T02:48:54;14.57;;;8.80;;
41446;SDS011;27185;52.040;4.490;2023-12-07T02:51:42;12.18;;;8.20;;
41446;SDS011;27185;52.040;4.490;2023-12-07T02:54:28;12.65;;;8.50;;
41446;SDS011;27185;52.040;4.490;2023-12-07T02:57:14;12.40;;;8.52;;
41446;SDS011;27185;52.040;4.490;2023-12-07T02:59:59;15.38;;;8.38;;
41446;SDS011;27185;52.040;4.490;2023-12-07T03:02:45;13.35;;;8.75;;
41446;SDS011;27185;52.040;4.490;2023-12-07T03:05:32;11.13;;;8.23;;
41446;SDS011;27185;52.040;4.490;2023-12-07T03:08:18;12.88;;;7.78;;
41446;SDS011;27185;52.040;4.490;2023-12-07T03:11:04;15.52;;;8.77;;
41446;SDS011;27185;52.040;4.490;2023-12-07T03:13:50;12.25;;;8.10;;
41446;SDS011;27185;52.040;4.490;2023-12-07T03:16:35;13.05;;;8.82;;
41446;SDS011;27185;52.040;4.490;2023-12-07T03:19:21;15.18;;;7.95;;
41446;SDS011;27185;52.040;4.490;2023-12-07T03:22:07;15.27;;;7.68;;
41446;SDS011;27185;52.040;4.490;2023-12-07T03:24:53;13.45;;;8.15;;
41446;SDS011;27185;52.040;4.490;2023-12-07T03:27:39;11.35;;;8.13;;
41446;SDS011;27185;52.040;4.490;2023-12-07T03:30:25;14.90;;;9.20;;
41446;SDS011;27185;52.040;4.490;2023-12-07T03:33:10;11.88;;;7.60;;
41446;SDS011;27185;52.040;4.490;2023-12-07T03:35:56;18.77;;;9.30;;
41446;SDS011;27185;52.040;4.490;2023-12-07T03:38:42;15.07;;;10.57;;
41446;SDS011;27185;52.040;4.490;2023-12-07T03:41:27;14.77;;;9.57;;
41446;SDS011;27185;52.040;4.490;2023-12-07T03:44:13;19.25;;;11.68;;
41446;SDS011;27185;52.040;4.490;2023-12-07T03:46:59;17.50;;;10.50;;
41446;SDS011;27185;52.040;4.490;2023-12-07T03:49:44;12.98;;;8.77;;
41446;SDS011;27185;52.040;4.490;2023-12-07T03:52:30;15.32;;;10.65;;
41446;SDS011;27185;52.040;4.490;2023-12-07T03:55:15;24.40;;;13.02;;
41446;SDS011;27185;52.040;4.490;2023-12-07T03:58:01;19.15;;;12.30;;
41446;SDS011;27185;52.040;4.490;2023-12-07T04:00:47;23.08;;;13.40;;
41446;SDS011;27185;52.040;4.490;2023-12-07T04:03:32;20.80;;;12.77;;
41446;SDS011;27185;52.040;4.490;2023-12-07T04:06:18;22.40;;;13.30;;
41446;SDS011;27185;52.040;4.490;2023-12-07T04:09:04;20.08;;;12.82;;
41446;SDS011;27185;52.040;4.490;2023-12-07T04:11:52;22.33;;;14.00;;
41446;SDS011;27185;52.040;4.490;2023-12-07T04:14:38;21.98;;;13.85;;
41446;SDS011;27185;52.040;4.490;2023-12-07T04:17:23;19.45;;;13.68;;
41446;SDS011;27185;52.040;4.490;2023-12-07T04:20:09;24.08;;;14.60;;
41446;SDS011;27185;52.040;4.490;2023-12-07T04:22:55;24.35;;;14.48;;
41446;SDS011;27185;52.040;4.490;2023-12-07T04:25:41;21.85;;;13.57;;
41446;SDS011;27185;52.040;4.490;2023-12-07T04:28:27;25.08;;;14.80;;
41446;SDS011;27185;52.040;4.490;2023-12-07T04:31:12;20.25;;;12.13;;
41446;SDS011;27185;52.040;4.490;2023-12-07T04:33:58;20.10;;;13.90;;
41446;SDS011;27185;52.040;4.490;2023-12-07T04:36:44;18.40;;;11.95;;
41446;SDS011;27185;52.040;4.490;2023-12-07T04:39:30;22.63;;;13.57;;
41446;SDS011;27185;52.040;4.490;2023-12-07T04:42:15;20.73;;;12.85;;
41446;SDS011;27185;52.040;4.490;2023-12-07T04:45:01;20.33;;;12.98;;
41446;SDS011;27185;52.040;4.490;2023-12-07T04:47:47;20.33;;;13.65;;
41446;SDS011;27185;52.040;4.490;2023-12-07T04:50:33;22.45;;;13.73;;
41446;SDS011;27185;52.040;4.490;2023-12-07T04:53:18;30.98;;;15.20;;
41446;SDS011;27185;52.040;4.490;2023-12-07T04:56:04;26.80;;;15.88;;
41446;SDS011;27185;52.040;4.490;2023-12-07T04:58:50;27.35;;;16.05;;
41446;SDS011;27185;52.040;4.490;2023-12-07T05:01:35;27.33;;;16.13;;
41446;SDS011;27185;52.040;4.490;2023-12-07T05:04:22;26.20;;;15.48;;
41446;SDS011;27185;52.040;4.490;2023-12-07T05:07:07;27.15;;;16.67;;
41446;SDS011;27185;52.040;4.490;2023-12-07T05:09:53;30.70;;;18.50;;
41446;SDS011;27185;52.040;4.490;2023-12-07T05:12:38;44.17;;;21.63;;
41446;SDS011;27185;52.040;4.490;2023-12-07T05:15:24;60.35;;;26.35;;
41446;SDS011;27185;52.040;4.490;2023-12-07T05:18:10;63.45;;;27.58;;
41446;SDS011;27185;52.040;4.490;2023-12-07T05:20:55;63.90;;;27.83;;
41446;SDS011;27185;52.040;4.490;2023-12-07T05:23:41;52.80;;;23.98;;
41446;SDS011;27185;52.040;4.490;2023-12-07T05:26:26;49.55;;;23.20;;
41446;SDS011;27185;52.040;4.490;2023-12-07T05:29:12;47.78;;;21.42;;
41446;SDS011;27185;52.040;4.490;2023-12-07T05:31:58;37.42;;;18.25;;
41446;SDS011;27185;52.040;4.490;2023-12-07T05:34:44;46.45;;;20.70;;
41446;SDS011;27185;52.040;4.490;2023-12-07T05:37:29;40.75;;;19.95;;
41446;SDS011;27185;52.040;4.490;2023-12-07T05:40:15;56.88;;;22.33;;
41446;SDS011;27185;52.040;4.490;2023-12-07T05:43:01;50.42;;;21.92;;
41446;SDS011;27185;52.040;4.490;2023-12-07T05:45:46;41.58;;;19.73;;
41446;SDS011;27185;52.040;4.490;2023-12-07T05:48:32;49.38;;;22.70;;
41446;SDS011;27185;52.040;4.490;2023-12-07T05:51:17;48.47;;;22.65;;
41446;SDS011;27185;52.040;4.490;2023-12-07T05:54:05;45.50;;;21.75;;
41446;SDS011;27185;52.040;4.490;2023-12-07T05:56:51;45.40;;;20.73;;
41446;SDS011;27185;52.040;4.490;2023-12-07T05:59:37;56.67;;;20.60;;
41446;SDS011;27185;52.040;4.490;2023-12-07T06:02:26;49.72;;;21.35;;
41446;SDS011;27185;52.040;4.490;2023-12-07T06:05:12;40.05;;;18.65;;
41446;SDS011;27185;52.040;4.490;2023-12-07T06:07:58;34.25;;;18.55;;
41446;SDS011;27185;52.040;4.490;2023-12-07T06:10:43;35.42;;;16.85;;
41446;SDS011;27185;52.040;4.490;2023-12-07T06:13:29;35.35;;;17.50;;
41446;SDS011;27185;52.040;4.490;2023-12-07T06:16:14;45.63;;;20.35;;
41446;SDS011;27185;52.040;4.490;2023-12-07T06:19:02;38.88;;;19.17;;
41446;SDS011;27185;52.040;4.490;2023-12-07T06:21:48;32.30;;;15.50;;
41446;SDS011;27185;52.040;4.490;2023-12-07T06:24:34;30.38;;;15.75;;
41446;SDS011;27185;52.040;4.490;2023-12-07T06:27:20;28.35;;;15.93;;
41446;SDS011;27185;52.040;4.490;2023-12-07T06:30:06;31.42;;;15.55;;
41446;SDS011;27185;52.040;4.490;2023-12-07T06:32:52;31.85;;;15.55;;
41446;SDS011;27185;52.040;4.490;2023-12-07T06:35:38;29.95;;;15.27;;
41446;SDS011;27185;52.040;4.490;2023-12-07T06:38:23;29.23;;;15.00;;
41446;SDS011;27185;52.040;4.490;2023-12-07T06:41:09;31.83;;;14.40;;
41446;SDS011;27185;52.040;4.490;2023-12-07T06:43:55;34.15;;;14.80;;
41446;SDS011;27185;52.040;4.490;2023-12-07T06:46:43;32.72;;;15.40;;
41446;SDS011;27185;52.040;4.490;2023-12-07T06:49:29;39.30;;;15.88;;
41446;SDS011;27185;52.040;4.490;2023-12-07T06:52:14;48.30;;;17.27;;
41446;SDS011;27185;52.040;4.490;2023-12-07T06:55:00;37.47;;;17.05;;
41446;SDS011;27185;52.040;4.490;2023-12-07T06:57:46;37.72;;;16.75;;
41446;SDS011;27185;52.040;4.490;2023-12-07T07:00:31;52.25;;;18.38;;
41446;SDS011;27185;52.040;4.490;2023-12-07T07:03:18;45.30;;;19.35;;
41446;SDS011;27185;52.040;4.490;2023-12-07T07:06:03;44.25;;;17.48;;
41446;SDS011;27185;52.040;4.490;2023-12-07T07:08:49;50.38;;;15.82;;
41446;SDS011;27185;52.040;4.490;2023-12-07T07:11:35;42.03;;;18.45;;
41446;SDS011;27185;52.040;4.490;2023-12-07T07:14:22;31.88;;;14.63;;
41446;SDS011;27185;52.040;4.490;2023-12-07T07:17:07;42.88;;;15.25;;
41446;SDS011;27185;52.040;4.490;2023-12-07T07:19:53;32.35;;;13.55;;
41446;SDS011;27185;52.040;4.490;2023-12-07T07:22:40;27.83;;;13.27;;
41446;SDS011;27185;52.040;4.490;2023-12-07T07:25:25;36.95;;;14.57;;
41446;SDS011;27185;52.040;4.490;2023-12-07T07:28:11;29.10;;;12.90;;
41446;SDS011;27185;52.040;4.490;2023-12-07T07:30:57;30.25;;;14.50;;
41446;SDS011;27185;52.040;4.490;2023-12-07T07:33:42;37.10;;;14.40;;
41446;SDS011;27185;52.040;4.490;2023-12-07T07:36:29;38.25;;;14.77;;
41446;SDS011;27185;52.040;4.490;2023-12-07T07:39:14;32.13;;;13.00;;
41446;SDS011;27185;52.040;4.490;2023-12-07T07:42:00;28.67;;;12.05;;
41446;SDS011;27185;52.040;4.490;2023-12-07T07:44:46;35.65;;;14.18;;
41446;SDS011;27185;52.040;4.490;2023-12-07T07:47:32;42.33;;;15.73;;
41446;SDS011;27185;52.040;4.490;2023-12-07T07:50:17;28.88;;;13.02;;
41446;SDS011;27185;52.040;4.490;2023-12-07T07:53:03;30.45;;;12.90;;
41446;SDS011;27185;52.040;4.490;2023-12-07T07:55:49;29.95;;;12.23;;
41446;SDS011;27185;52.040;4.490;2023-12-07T07:58:35;25.08;;;11.43;;
41446;SDS011;27185;52.040;4.490;2023-12-07T08:01:21;27.60;;;13.20;;
41446;SDS011;27185;52.040;4.490;2023-12-07T08:04:07;29.63;;;13.68;;
41446;SDS011;27185;52.040;4.490;2023-12-07T08:06:53;38.75;;;13.15;;
41446;SDS011;27185;52.040;4.490;2023-12-07T08:09:38;27.48;;;12.32;;
41446;SDS011;27185;52.040;4.490;2023-12-07T08:12:24;27.33;;;12.45;;
41446;SDS011;27185;52.040;4.490;2023-12-07T08:15:10;25.75;;;13.38;;
41446;SDS011;27185;52.040;4.490;2023-12-07T08:17:56;38.13;;;14.65;;
41446;SDS011;27185;52.040;4.490;2023-12-07T08:20:41;28.80;;;14.43;;
41446;SDS011;27185;52.040;4.490;2023-12-07T08:23:27;29.48;;;13.68;;
41446;SDS011;27185;52.040;4.490;2023-12-07T08:26:13;33.53;;;14.55;;
41446;SDS011;27185;52.040;4.490;2023-12-07T08:28:59;37.70;;;15.90;;
41446;SDS011;27185;52.040;4.490;2023-12-07T08:31:45;28.58;;;13.23;;
41446;SDS011;27185;52.040;4.490;2023-12-07T08:34:32;30.88;;;16.10;;
41446;SDS011;27185;52.040;4.490;2023-12-07T08:37:17;36.25;;;15.88;;
41446;SDS011;27185;52.040;4.490;2023-12-07T08:40:03;38.03;;;14.23;;
41446;SDS011;27185;52.040;4.490;2023-12-07T08:42:49;29.55;;;14.35;;
41446;SDS011;27185;52.040;4.490;2023-12-07T08:45:35;32.78;;;15.23;;
41446;SDS011;27185;52.040;4.490;2023-12-07T08:48:23;32.40;;;14.90;;
41446;SDS011;27185;52.040;4.490;2023-12-07T08:51:09;34.65;;;14.32;;
41446;SDS011;27185;52.040;4.490;2023-12-07T08:53:55;35.85;;;14.07;;
41446;SDS011;27185;52.040;4.490;2023-12-07T08:56:43;36.65;;;16.05;;
41446;SDS011;27185;52.040;4.490;2023-12-07T08:59:29;40.95;;;17.83;;
41446;SDS011;27185;52.040;4.490;2023-12-07T09:02:15;30.77;;;14.35;;
41446;SDS011;27185;52.040;4.490;2023-12-07T09:05:01;36.50;;;16.85;;
41446;SDS011;27185;52.040;4.490;2023-12-07T09:07:46;37.55;;;15.57;;
41446;SDS011;27185;52.040;4.490;2023-12-07T09:10:32;37.25;;;17.98;;
41446;SDS011;27185;52.040;4.490;2023-12-07T09:13:17;36.38;;;16.45;;
41446;SDS011;27185;52.040;4.490;2023-12-07T09:16:03;41.13;;;16.83;;
41446;SDS011;27185;52.040;4.490;2023-12-07T09:18:49;35.83;;;16.75;;
41446;SDS011;27185;52.040;4.490;2023-12-07T09:21:35;39.75;;;16.88;;
41446;SDS011;27185;52.040;4.490;2023-12-07T09:24:21;41.45;;;17.50;;
41446;SDS011;27185;52.040;4.490;2023-12-07T09:27:06;48.20;;;17.98;;
41446;SDS011;27185;52.040;4.490;2023-12-07T09:29:52;45.90;;;17.58;;
41446;SDS011;27185;52.040;4.490;2023-12-07T09:32:38;44.05;;;17.15;;
41446;SDS011;27185;52.040;4.490;2023-12-07T09:35:24;47.25;;;18.00;;
41446;SDS011;27185;52.040;4.490;2023-12-07T09:38:10;42.22;;;17.02;;
41446;SDS011;27185;52.040;4.490;2023-12-07T09:40:56;47.90;;;18.73;;
41446;SDS011;27185;52.040;4.490;2023-12-07T09:43:41;49.13;;;19.27;;
41446;SDS011;27185;52.040;4.490;2023-12-07T09:46:27;44.65;;;19.48;;
41446;SDS011;27185;52.040;4.490;2023-12-07T09:49:15;51.15;;;20.90;;
41446;SDS011;27185;52.040;4.490;2023-12-07T09:52:00;50.55;;;20.15;;
41446;SDS011;27185;52.040;4.490;2023-12-07T09:57:39;35.58;;;16.08;;
41446;SDS011;27185;52.040;4.490;2023-12-07T10:00:24;48.90;;;20.67;;
41446;SDS011;27185;52.040;4.490;2023-12-07T10:03:19;54.30;;;23.45;;
41446;SDS011;27185;52.040;4.490;2023-12-07T10:06:07;48.97;;;20.80;;
41446;SDS011;27185;52.040;4.490;2023-12-07T10:08:53;51.40;;;21.88;;
41446;SDS011;27185;52.040;4.490;2023-12-07T10:11:49;54.53;;;23.10;;
41446;SDS011;27185;52.040;4.490;2023-12-07T10:14:34;55.50;;;21.88;;
41446;SDS011;27185;52.040;4.490;2023-12-07T10:17:20;50.55;;;21.88;;
41446;SDS011;27185;52.040;4.490;2023-12-07T10:20:06;51.58;;;21.42;;
41446;SDS011;27185;52.040;4.490;2023-12-07T10:23:03;47.65;;;22.65;;
41446;SDS011;27185;52.040;4.490;2023-12-07T10:25:50;46.05;;;20.58;;
41446;SDS011;27185;52.040;4.490;2023-12-07T10:28:36;44.40;;;20.58;;
41446;SDS011;27185;52.040;4.490;2023-12-07T10:31:22;36.95;;;18.40;;
41446;SDS011;27185;52.040;4.490;2023-12-07T10:34:08;47.72;;;19.95;;
41446;SDS011;27185;52.040;4.490;2023-12-07T10:36:54;38.72;;;18.25;;
41446;SDS011;27185;52.040;4.490;2023-12-07T10:39:40;37.15;;;19.05;;
41446;SDS011;27185;52.040;4.490;2023-12-07T10:42:26;40.00;;;20.55;;
41446;SDS011;27185;52.040;4.490;2023-12-07T10:45:17;37.38;;;19.92;;
41446;SDS011;27185;52.040;4.490;2023-12-07T10:48:07;34.53;;;18.63;;
41446;SDS011;27185;52.040;4.490;2023-12-07T10:50:53;38.93;;;20.47;;
41446;SDS011;27185;52.040;4.490;2023-12-07T10:53:44;41.78;;;19.67;;
41446;SDS011;27185;52.040;4.490;2023-12-07T10:56:43;44.50;;;20.08;;
41446;SDS011;27185;52.040;4.490;2023-12-07T10:59:30;41.47;;;19.92;;
41446;SDS011;27185;52.040;4.490;2023-12-07T11:02:17;39.63;;;19.55;;
41446;SDS011;27185;52.040;4.490;2023-12-07T11:14:10;34.92;;;19.15;;
41446;SDS011;27185;52.040;4.490;2023-12-07T11:16:59;34.45;;;18.65;;
41446;SDS011;27185;52.040;4.490;2023-12-07T11:19:46;37.42;;;19.30;;
41446;SDS011;27185;52.040;4.490;2023-12-07T11:22:34;30.15;;;18.25;;
41446;SDS011;27185;52.040;4.490;2023-12-07T11:25:20;37.47;;;20.08;;
41446;SDS011;27185;52.040;4.490;2023-12-07T11:28:15;27.38;;;16.35;;
41446;SDS011;27185;52.040;4.490;2023-12-07T11:31:01;34.08;;;18.77;;
41446;SDS011;27185;52.040;4.490;2023-12-07T11:33:47;28.95;;;17.08;;
41446;SDS011;27185;52.040;4.490;2023-12-07T11:36:33;27.80;;;16.90;;
41446;SDS011;27185;52.040;4.490;2023-12-07T11:39:18;31.45;;;17.70;;
41446;SDS011;27185;52.040;4.490;2023-12-07T11:42:10;32.53;;;17.25;;
41446;SDS011;27185;52.040;4.490;2023-12-07T11:45:04;27.40;;;15.70;;
41446;SDS011;27185;52.040;4.490;2023-12-07T11:48:05;27.48;;;16.10;;
41446;SDS011;27185;52.040;4.490;2023-12-07T11:50:59;28.92;;;15.98;;
41446;SDS011;27185;52.040;4.490;2023-12-07T11:53:46;27.77;;;15.60;;
41446;SDS011;27185;52.040;4.490;2023-12-07T11:56:33;22.75;;;13.57;;
41446;SDS011;27185;52.040;4.490;2023-12-07T11:59:19;27.25;;;15.10;;
41446;SDS011;27185;52.040;4.490;2023-12-07T12:02:05;27.20;;;15.57;;
41446;SDS011;27185;52.040;4.490;2023-12-07T12:04:50;26.75;;;16.45;;
41446;SDS011;27185;52.040;4.490;2023-12-07T12:10:24;29.60;;;16.73;;
41446;SDS011;27185;52.040;4.490;2023-12-07T12:13:10;28.83;;;16.25;;
41446;SDS011;27185;52.040;4.490;2023-12-07T12:15:57;35.15;;;17.45;;
41446;SDS011;27185;52.040;4.490;2023-12-07T12:18:42;26.08;;;16.25;;
41446;SDS011;27185;52.040;4.490;2023-12-07T12:21:28;27.65;;;16.48;;
41446;SDS011;27185;52.040;4.490;2023-12-07T12:24:19;27.58;;;15.60;;
41446;SDS011;27185;52.040;4.490;2023-12-07T12:27:04;28.08;;;16.38;;
41446;SDS011;27185;52.040;4.490;2023-12-07T12:29:52;32.35;;;17.75;;
41446;SDS011;27185;52.040;4.490;2023-12-07T12:32:42;34.38;;;17.80;;
41446;SDS011;27185;52.040;4.490;2023-12-07T12:35:28;31.98;;;18.42;;
41446;SDS011;27185;52.040;4.490;2023-12-07T12:38:14;30.67;;;19.23;;
41446;SDS011;27185;52.040;4.490;2023-12-07T12:41:00;36.38;;;21.45;;
41446;SDS011;27185;52.040;4.490;2023-12-07T12:43:45;33.28;;;21.05;;
41446;SDS011;27185;52.040;4.490;2023-12-07T12:46:31;33.22;;;19.98;;
41446;SDS011;27185;52.040;4.490;2023-12-07T12:49:19;31.95;;;18.55;;
41446;SDS011;27185;52.040;4.490;2023-12-07T12:52:05;37.47;;;19.88;;
41446;SDS011;27185;52.040;4.490;2023-12-07T12:54:55;34.70;;;20.10;;
41446;SDS011;27185;52.040;4.490;2023-12-07T12:57:41;35.55;;;20.92;;
41446;SDS011;27185;52.040;4.490;2023-12-07T13:00:27;32.65;;;19.30;;
41446;SDS011;27185;52.040;4.490;2023-12-07T13:03:13;30.63;;;18.83;;
41446;SDS011;27185;52.040;4.490;2023-12-07T13:05:58;24.58;;;15.80;;
41446;SDS011;27185;52.040;4.490;2023-12-07T13:08:45;31.27;;;18.50;;
41446;SDS011;27185;52.040;4.490;2023-12-07T13:11:31;34.55;;;19.27;;
41446;SDS011;27185;52.040;4.490;2023-12-07T13:14:17;39.10;;;22.10;;
41446;SDS011;27185;52.040;4.490;2023-12-07T13:17:02;32.63;;;19.58;;
41446;SDS011;27185;52.040;4.490;2023-12-07T13:19:49;32.65;;;19.48;;
41446;SDS011;27185;52.040;4.490;2023-12-07T13:22:34;36.38;;;20.45;;
41446;SDS011;27185;52.040;4.490;2023-12-07T13:25:20;34.28;;;20.05;;
41446;SDS011;27185;52.040;4.490;2023-12-07T13:28:05;32.33;;;20.33;;
41446;SDS011;27185;52.040;4.490;2023-12-07T13:30:53;32.75;;;19.80;;
41446;SDS011;27185;52.040;4.490;2023-12-07T13:33:39;33.25;;;18.67;;
41446;SDS011;27185;52.040;4.490;2023-12-07T13:36:25;27.17;;;16.00;;
41446;SDS011;27185;52.040;4.490;2023-12-07T13:39:13;29.38;;;16.08;;
41446;SDS011;27185;52.040;4.490;2023-12-07T13:42:00;27.75;;;16.45;;
41446;SDS011;27185;52.040;4.490;2023-12-07T13:44:46;26.23;;;16.23;;
41446;SDS011;27185;52.040;4.490;2023-12-07T13:47:32;26.27;;;15.60;;
41446;SDS011;27185;52.040;4.490;2023-12-07T13:50:17;24.42;;;15.73;;
41446;SDS011;27185;52.040;4.490;2023-12-07T13:53:03;24.35;;;14.85;;
41446;SDS011;27185;52.040;4.490;2023-12-07T13:55:49;29.77;;;17.45;;
41446;SDS011;27185;52.040;4.490;2023-12-07T13:58:36;25.95;;;15.73;;
41446;SDS011;27185;52.040;4.490;2023-12-07T14:01:21;26.80;;;15.68;;
41446;SDS011;27185;52.040;4.490;2023-12-07T14:04:07;28.27;;;17.05;;
41446;SDS011;27185;52.040;4.490;2023-12-07T14:06:53;30.42;;;17.40;;
41446;SDS011;27185;52.040;4.490;2023-12-07T14:09:39;28.70;;;16.48;;
41446;SDS011;27185;52.040;4.490;2023-12-07T14:12:26;32.10;;;18.35;;
41446;SDS011;27185;52.040;4.490;2023-12-07T14:15:12;26.48;;;16.45;;
41446;SDS011;27185;52.040;4.490;2023-12-07T14:17:57;27.85;;;17.33;;
41446;SDS011;27185;52.040;4.490;2023-12-07T14:20:45;29.33;;;17.50;;
41446;SDS011;27185;52.040;4.490;2023-12-07T14:23:31;23.98;;;14.73;;
41446;SDS011;27185;52.040;4.490;2023-12-07T14:26:16;25.73;;;15.77;;
41446;SDS011;27185;52.040;4.490;2023-12-07T14:29:02;26.55;;;15.80;;
41446;SDS011;27185;52.040;4.490;2023-12-07T14:31:48;31.02;;;17.55;;
41446;SDS011;27185;52.040;4.490;2023-12-07T14:34:34;25.52;;;15.57;;
41446;SDS011;27185;52.040;4.490;2023-12-07T14:37:20;23.83;;;15.38;;
41446;SDS011;27185;52.040;4.490;2023-12-07T14:40:06;31.75;;;18.55;;
41446;SDS011;27185;52.040;4.490;2023-12-07T14:42:53;27.37;;;18.63;;
41446;SDS011;27185;52.040;4.490;2023-12-07T14:45:39;29.95;;;17.90;;
41446;SDS011;27185;52.040;4.490;2023-12-07T14:48:24;27.17;;;17.98;;
41446;SDS011;27185;52.040;4.490;2023-12-07T14:51:10;33.42;;;17.65;;
41446;SDS011;27185;52.040;4.490;2023-12-07T14:53:55;28.02;;;16.27;;
41446;SDS011;27185;52.040;4.490;2023-12-07T14:56:43;30.65;;;18.55;;
41446;SDS011;27185;52.040;4.490;2023-12-07T14:59:32;32.35;;;19.02;;
41446;SDS011;27185;52.040;4.490;2023-12-07T15:02:17;30.35;;;18.58;;
41446;SDS011;27185;52.040;4.490;2023-12-07T15:05:03;37.05;;;21.17;;
41446;SDS011;27185;52.040;4.490;2023-12-07T15:07:49;31.98;;;18.63;;
41446;SDS011;27185;52.040;4.490;2023-12-07T15:10:36;31.65;;;19.08;;
41446;SDS011;27185;52.040;4.490;2023-12-07T15:13:22;32.95;;;20.13;;
41446;SDS011;27185;52.040;4.490;2023-12-07T15:16:07;37.28;;;21.52;;
41446;SDS011;27185;52.040;4.490;2023-12-07T15:18:54;35.85;;;21.50;;
41446;SDS011;27185;52.040;4.490;2023-12-07T15:21:39;38.45;;;22.60;;
41446;SDS011;27185;52.040;4.490;2023-12-07T15:24:25;41.63;;;23.80;;
41446;SDS011;27185;52.040;4.490;2023-12-07T15:27:11;41.55;;;23.67;;
41446;SDS011;27185;52.040;4.490;2023-12-07T15:29:56;30.45;;;19.30;;
41446;SDS011;27185;52.040;4.490;2023-12-07T15:32:42;41.10;;;23.35;;
41446;SDS011;27185;52.040;4.490;2023-12-07T15:35:28;38.63;;;21.77;;
41446;SDS011;27185;52.040;4.490;2023-12-07T15:38:14;38.65;;;23.67;;
41446;SDS011;27185;52.040;4.490;2023-12-07T15:40:59;31.58;;;19.80;;
41446;SDS011;27185;52.040;4.490;2023-12-07T15:43:47;39.50;;;22.50;;
41446;SDS011;27185;52.040;4.490;2023-12-07T15:46:33;35.05;;;21.27;;
41446;SDS011;27185;52.040;4.490;2023-12-07T15:49:18;36.53;;;23.45;;
41446;SDS011;27185;52.040;4.490;2023-12-07T15:52:04;39.90;;;22.13;;
41446;SDS011;27185;52.040;4.490;2023-12-07T15:54:50;38.00;;;21.67;;
41446;SDS011;27185;52.040;4.490;2023-12-07T15:57:36;41.97;;;23.45;;
41446;SDS011;27185;52.040;4.490;2023-12-07T16:00:21;40.50;;;23.20;;
41446;SDS011;27185;52.040;4.490;2023-12-07T16:03:07;42.70;;;24.40;;
41446;SDS011;27185;52.040;4.490;2023-12-07T16:05:53;36.65;;;21.90;;
41446;SDS011;27185;52.040;4.490;2023-12-07T16:08:38;42.78;;;22.90;;
41446;SDS011;27185;52.040;4.490;2023-12-07T16:11:24;41.58;;;24.70;;
41446;SDS011;27185;52.040;4.490;2023-12-07T16:14:10;47.08;;;26.52;;
41446;SDS011;27185;52.040;4.490;2023-12-07T16:16:56;54.38;;;29.55;;
41446;SDS011;27185;52.040;4.490;2023-12-07T16:19:42;47.70;;;27.27;;
41446;SDS011;27185;52.040;4.490;2023-12-07T16:22:27;54.25;;;29.40;;
41446;SDS011;27185;52.040;4.490;2023-12-07T16:25:13;51.17;;;27.48;;
41446;SDS011;27185;52.040;4.490;2023-12-07T16:27:59;51.20;;;27.65;;
41446;SDS011;27185;52.040;4.490;2023-12-07T16:30:44;48.45;;;27.98;;
41446;SDS011;27185;52.040;4.490;2023-12-07T16:33:30;46.67;;;27.33;;